createdAt,value
2022-09-28T00:03:24.000Z,7.7
2022-09-28T00:33:27.000Z,8.0
2022-09-28T01:03:31.000Z,8.2
2022-09-28T01:33:34.000Z,8.3
2022-09-28T02:03:37.000Z,8.3
2022-09-28T02:33:38.000Z,8.3
2022-09-28T03:03:40.000Z,8.5
2022-09-28T03:33:48.000Z,8.7
2022-09-28T04:03:53.000Z,8.8
2022-09-28T04:33:56.000Z,8.8
2022-09-28T05:04:07.000Z,8.9
2022-09-28T05:34:12.000Z,9.0
2022-09-28T06:04:16.000Z,8.9
2022-09-28T06:34:19.000Z,9.1
2022-09-28T07:04:21.000Z,9.6
2022-09-28T07:34:27.000Z,9.9
2022-09-28T08:04:31.000Z,9.8
2022-09-28T08:34:35.000Z,9.8
2022-09-28T09:04:38.000Z,10.3
2022-09-28T09:34:39.000Z,10.2
2022-09-28T10:04:41.000Z,10.6
2022-09-28T10:34:47.000Z,10.9
2022-09-28T11:05:01.000Z,11.8
2022-09-28T11:35:03.000Z,11.7
2022-09-28T12:05:04.000Z,11.4
2022-09-28T12:35:07.000Z,12.1
2022-09-28T13:05:11.000Z,11.8
2022-09-28T13:35:15.000Z,11.6
2022-09-28T14:05:24.000Z,11.6
2022-09-28T14:35:26.000Z,11.9
2022-09-28T15:05:36.000Z,12.1
2022-09-28T15:35:39.000Z,11.4
2022-09-28T16:05:43.000Z,10.7
2022-09-28T16:35:49.000Z,10.1
2022-09-28T17:05:52.000Z,9.3
2022-09-28T17:35:56.000Z,9.1
2022-09-28T17:36:06.000Z,9.1
2022-09-28T17:36:16.000Z,9.1
2022-09-28T17:36:27.000Z,9.1
2022-09-28T17:36:37.000Z,9.1
2022-09-28T17:36:48.000Z,9.0
2022-09-28T17:36:58.000Z,9.0
2022-09-28T17:37:09.000Z,9.0
2022-09-28T18:08:32.000Z,8.8
2022-09-28T18:38:34.000Z,8.5
2022-09-28T19:08:39.000Z,7.7
2022-09-28T19:38:46.000Z,6.9
2022-09-28T20:08:50.000Z,6.0
2022-09-28T20:38:54.000Z,5.4
2022-09-28T21:09:00.000Z,4.6
2022-09-28T21:39:05.000Z,4.3
2022-09-28T22:09:20.000Z,4.5
2022-09-28T22:39:22.000Z,4.9
2022-09-28T23:09:23.000Z,5.3
2022-09-28T23:39:25.000Z,5.5
